sensor_id;sensor_type;location;lat;lon;timestamp;temperature;humidity
19799;DHT22;10059;59.850;10.454;2022-07-29T00:00:13;15.50;99.90
19799;DHT22;10059;59.850;10.454;2022-07-29T00:02:39;15.60;99.90
19799;DHT22;10059;59.850;10.454;2022-07-29T00:05:08;15.60;99.90
19799;DHT22;10059;59.850;10.454;2022-07-29T00:07:39;15.60;99.90
19799;DHT22;10059;59.850;10.454;2022-07-29T00:10:06;15.60;99.90
19799;DHT22;10059;59.850;10.454;2022-07-29T00:12:35;15.70;99.90
19799;DHT22;10059;59.850;10.454;2022-07-29T00:15:03;15.60;99.90
19799;DHT22;10059;59.850;10.454;2022-07-29T00:17:30;15.60;99.90
19799;DHT22;10059;59.850;10.454;2022-07-29T00:19:56;15.50;99.90
19799;DHT22;10059;59.850;10.454;2022-07-29T00:22:23;15.60;99.90
19799;DHT22;10059;59.850;10.454;2022-07-29T00:24:50;15.60;99.90
19799;DHT22;10059;59.850;10.454;2022-07-29T00:27:17;15.60;99.90
19799;DHT22;10059;59.850;10.454;2022-07-29T00:29:46;15.50;99.90
19799;DHT22;10059;59.850;10.454;2022-07-29T00:32:13;15.50;99.90
19799;DHT22;10059;59.850;10.454;2022-07-29T00:34:40;15.40;99.90
19799;DHT22;10059;59.850;10.454;2022-07-29T00:37:24;15.40;99.90
19799;DHT22;10059;59.850;10.454;2022-07-29T00:39:51;15.40;99.90
19799;DHT22;10059;59.850;10.454;2022-07-29T00:42:18;15.40;99.90
19799;DHT22;10059;59.850;10.454;2022-07-29T00:44:46;15.10;99.90
19799;DHT22;10059;59.850;10.454;2022-07-29T00:47:13;15.10;99.90
19799;DHT22;10059;59.850;10.454;2022-07-29T00:49:41;15.00;99.90
19799;DHT22;10059;59.850;10.454;2022-07-29T00:52:09;15.00;99.90
19799;DHT22;10059;59.850;10.454;2022-07-29T00:54:38;15.00;99.90
19799;DHT22;10059;59.850;10.454;2022-07-29T00:57:06;14.90;99.90
19799;DHT22;10059;59.850;10.454;2022-07-29T00:59:33;14.90;99.90
19799;DHT22;10059;59.850;10.454;2022-07-29T01:02:02;14.70;99.90
19799;DHT22;10059;59.850;10.454;2022-07-29T01:04:31;14.70;99.90
19799;DHT22;10059;59.850;10.454;2022-07-29T01:06:58;14.60;99.90
19799;DHT22;10059;59.850;10.454;2022-07-29T01:09:27;14.60;99.90
19799;DHT22;10059;59.850;10.454;2022-07-29T01:11:54;14.60;99.90
19799;DHT22;10059;59.850;10.454;2022-07-29T01:14:21;14.50;99.90
19799;DHT22;10059;59.850;10.454;2022-07-29T01:16:54;14.50;99.90
19799;DHT22;10059;59.850;10.454;2022-07-29T01:19:48;14.50;99.90
19799;DHT22;10059;59.850;10.454;2022-07-29T01:22:28;14.50;99.90
19799;DHT22;10059;59.850;10.454;2022-07-29T01:25:17;14.50;99.90
19799;DHT22;10059;59.850;10.454;2022-07-29T01:30:46;14.50;99.90
19799;DHT22;10059;59.850;10.454;2022-07-29T01:33:17;14.30;99.90
19799;DHT22;10059;59.850;10.454;2022-07-29T01:36:02;14.30;99.90
19799;DHT22;10059;59.850;10.454;2022-07-29T01:38:32;14.20;99.90
19799;DHT22;10059;59.850;10.454;2022-07-29T01:41:05;14.20;99.90
19799;DHT22;10059;59.850;10.454;2022-07-29T01:43:38;14.30;99.90
19799;DHT22;10059;59.850;10.454;2022-07-29T01:46:11;14.20;99.90
19799;DHT22;10059;59.850;10.454;2022-07-29T01:48:42;14.20;99.90
19799;DHT22;10059;59.850;10.454;2022-07-29T01:51:15;14.30;99.90
19799;DHT22;10059;59.850;10.454;2022-07-29T01:53:47;14.10;99.90
19799;DHT22;10059;59.850;10.454;2022-07-29T01:56:18;14.10;99.90
19799;DHT22;10059;59.850;10.454;2022-07-29T01:58:48;14.20;99.90
19799;DHT22;10059;59.850;10.454;2022-07-29T02:01:18;14.10;99.90
19799;DHT22;10059;59.850;10.454;2022-07-29T02:03:46;14.00;99.90
19799;DHT22;10059;59.850;10.454;2022-07-29T02:06:19;13.90;99.90
19799;DHT22;10059;59.850;10.454;2022-07-29T02:08:47;14.00;99.90
19799;DHT22;10059;59.850;10.454;2022-07-29T02:11:14;14.00;99.90
19799;DHT22;10059;59.850;10.454;2022-07-29T02:13:41;14.10;99.90
19799;DHT22;10059;59.850;10.454;2022-07-29T02:16:10;14.00;99.90
19799;DHT22;10059;59.850;10.454;2022-07-29T02:18:40;13.90;99.90
19799;DHT22;10059;59.850;10.454;2022-07-29T02:21:09;13.90;99.90
19799;DHT22;10059;59.850;10.454;2022-07-29T02:23:37;13.90;99.90
19799;DHT22;10059;59.850;10.454;2022-07-29T02:26:06;14.00;99.90
19799;DHT22;10059;59.850;10.454;2022-07-29T02:28:34;14.00;99.90
19799;DHT22;10059;59.850;10.454;2022-07-29T02:31:02;13.90;99.90
19799;DHT22;10059;59.850;10.454;2022-07-29T02:33:30;13.90;99.90
19799;DHT22;10059;59.850;10.454;2022-07-29T02:35:59;13.80;99.90
19799;DHT22;10059;59.850;10.454;2022-07-29T02:38:28;13.90;99.90
19799;DHT22;10059;59.850;10.454;2022-07-29T02:41:16;13.90;99.90
19799;DHT22;10059;59.850;10.454;2022-07-29T02:43:46;13.90;99.90
19799;DHT22;10059;59.850;10.454;2022-07-29T02:46:18;13.80;99.90
19799;DHT22;10059;59.850;10.454;2022-07-29T02:48:55;13.70;99.90
19799;DHT22;10059;59.850;10.454;2022-07-29T02:51:27;13.60;99.90
19799;DHT22;10059;59.850;10.454;2022-07-29T02:53:57;13.50;99.90
19799;DHT22;10059;59.850;10.454;2022-07-29T02:56:28;13.50;99.90
19799;DHT22;10059;59.850;10.454;2022-07-29T02:59:03;13.40;99.90
19799;DHT22;10059;59.850;10.454;2022-07-29T03:01:31;13.40;99.90
19799;DHT22;10059;59.850;10.454;2022-07-29T03:04:03;13.50;99.90
19799;DHT22;10059;59.850;10.454;2022-07-29T03:06:33;13.40;99.90
19799;DHT22;10059;59.850;10.454;2022-07-29T03:09:01;13.40;99.90
19799;DHT22;10059;59.850;10.454;2022-07-29T03:11:28;13.30;99.90
19799;DHT22;10059;59.850;10.454;2022-07-29T03:13:56;13.20;99.90
19799;DHT22;10059;59.850;10.454;2022-07-29T03:16:23;13.20;99.90
19799;DHT22;10059;59.850;10.454;2022-07-29T03:18:51;13.30;99.90
19799;DHT22;10059;59.850;10.454;2022-07-29T03:21:19;13.30;99.90
19799;DHT22;10059;59.850;10.454;2022-07-29T03:23:47;13.30;99.90
19799;DHT22;10059;59.850;10.454;2022-07-29T03:26:14;13.30;99.90
19799;DHT22;10059;59.850;10.454;2022-07-29T03:28:41;13.40;99.90
19799;DHT22;10059;59.850;10.454;2022-07-29T03:31:08;13.50;99.90
19799;DHT22;10059;59.850;10.454;2022-07-29T03:33:34;13.50;99.90
19799;DHT22;10059;59.850;10.454;2022-07-29T03:36:01;13.30;99.90
19799;DHT22;10059;59.850;10.454;2022-07-29T03:38:30;13.30;99.90
19799;DHT22;10059;59.850;10.454;2022-07-29T03:41:04;13.30;99.90
19799;DHT22;10059;59.850;10.454;2022-07-29T03:43:35;13.20;99.90
19799;DHT22;10059;59.850;10.454;2022-07-29T03:46:05;13.20;99.90
19799;DHT22;10059;59.850;10.454;2022-07-29T03:48:34;13.20;99.90
19799;DHT22;10059;59.850;10.454;2022-07-29T03:51:02;13.30;99.90
19799;DHT22;10059;59.850;10.454;2022-07-29T03:53:29;13.40;99.90
19799;DHT22;10059;59.850;10.454;2022-07-29T03:56:01;13.50;99.90
19799;DHT22;10059;59.850;10.454;2022-07-29T03:58:30;13.50;99.90
19799;DHT22;10059;59.850;10.454;2022-07-29T04:00:58;13.60;99.90
19799;DHT22;10059;59.850;10.454;2022-07-29T04:03:25;13.50;99.90
19799;DHT22;10059;59.850;10.454;2022-07-29T04:06:00;13.50;99.90
19799;DHT22;10059;59.850;10.454;2022-07-29T04:08:27;13.50;99.90
19799;DHT22;10059;59.850;10.454;2022-07-29T04:10:54;13.50;99.90
19799;DHT22;10059;59.850;10.454;2022-07-29T04:13:23;13.70;99.90
19799;DHT22;10059;59.850;10.454;2022-07-29T04:15:50;13.70;99.90
19799;DHT22;10059;59.850;10.454;2022-07-29T04:18:17;13.80;99.90
19799;DHT22;10059;59.850;10.454;2022-07-29T04:20:44;13.80;99.90
19799;DHT22;10059;59.850;10.454;2022-07-29T04:23:11;13.90;99.90
19799;DHT22;10059;59.850;10.454;2022-07-29T04:25:38;14.10;99.90
19799;DHT22;10059;59.850;10.454;2022-07-29T04:28:05;14.20;99.90
19799;DHT22;10059;59.850;10.454;2022-07-29T04:30:35;14.40;99.90
19799;DHT22;10059;59.850;10.454;2022-07-29T04:33:03;14.60;99.90
19799;DHT22;10059;59.850;10.454;2022-07-29T04:35:34;14.70;99.90
19799;DHT22;10059;59.850;10.454;2022-07-29T04:38:01;14.90;99.90
19799;DHT22;10059;59.850;10.454;2022-07-29T04:40:28;15.10;99.90
19799;DHT22;10059;59.850;10.454;2022-07-29T04:42:55;15.40;99.90
19799;DHT22;10059;59.850;10.454;2022-07-29T04:45:22;15.70;99.90
19799;DHT22;10059;59.850;10.454;2022-07-29T04:47:50;16.00;99.90
19799;DHT22;10059;59.850;10.454;2022-07-29T04:50:17;16.20;99.90
19799;DHT22;10059;59.850;10.454;2022-07-29T04:52:44;16.40;99.90
19799;DHT22;10059;59.850;10.454;2022-07-29T04:55:11;16.50;99.90
19799;DHT22;10059;59.850;10.454;2022-07-29T04:57:38;16.60;99.90
19799;DHT22;10059;59.850;10.454;2022-07-29T05:00:06;16.80;99.90
19799;DHT22;10059;59.850;10.454;2022-07-29T05:02:33;16.90;99.90
19799;DHT22;10059;59.850;10.454;2022-07-29T05:05:02;16.90;99.90
19799;DHT22;10059;59.850;10.454;2022-07-29T05:07:29;16.80;99.90
19799;DHT22;10059;59.850;10.454;2022-07-29T05:09:55;16.80;99.90
19799;DHT22;10059;59.850;10.454;2022-07-29T05:12:23;16.70;99.90
19799;DHT22;10059;59.850;10.454;2022-07-29T05:14:50;16.60;99.90
19799;DHT22;10059;59.850;10.454;2022-07-29T05:17:17;16.10;99.90
19799;DHT22;10059;59.850;10.454;2022-07-29T05:19:44;16.00;99.90
19799;DHT22;10059;59.850;10.454;2022-07-29T05:22:12;16.00;99.90
19799;DHT22;10059;59.850;10.454;2022-07-29T05:24:39;16.00;99.90
19799;DHT22;10059;59.850;10.454;2022-07-29T05:27:06;16.20;99.90
19799;DHT22;10059;59.850;10.454;2022-07-29T05:29:33;16.30;99.90
19799;DHT22;10059;59.850;10.454;2022-07-29T05:32:00;16.60;99.90
19799;DHT22;10059;59.850;10.454;2022-07-29T05:34:27;16.70;99.90
19799;DHT22;10059;59.850;10.454;2022-07-29T05:36:54;17.10;99.90
19799;DHT22;10059;59.850;10.454;2022-07-29T05:39:22;17.30;99.90
19799;DHT22;10059;59.850;10.454;2022-07-29T05:41:49;17.20;99.90
19799;DHT22;10059;59.850;10.454;2022-07-29T05:44:16;17.20;99.90
19799;DHT22;10059;59.850;10.454;2022-07-29T05:46:43;17.20;99.90
19799;DHT22;10059;59.850;10.454;2022-07-29T05:49:10;17.20;99.90
19799;DHT22;10059;59.850;10.454;2022-07-29T05:51:37;17.30;99.90
19799;DHT22;10059;59.850;10.454;2022-07-29T05:54:04;17.40;99.90
19799;DHT22;10059;59.850;10.454;2022-07-29T05:56:32;17.40;99.90
19799;DHT22;10059;59.850;10.454;2022-07-29T05:58:59;17.70;99.90
19799;DHT22;10059;59.850;10.454;2022-07-29T06:01:26;17.90;99.90
19799;DHT22;10059;59.850;10.454;2022-07-29T06:03:53;18.20;99.90
19799;DHT22;10059;59.850;10.454;2022-07-29T06:06:20;18.60;99.90
19799;DHT22;10059;59.850;10.454;2022-07-29T06:08:47;19.00;99.90
19799;DHT22;10059;59.850;10.454;2022-07-29T06:11:13;19.10;99.90
19799;DHT22;10059;59.850;10.454;2022-07-29T06:13:42;19.00;99.90
19799;DHT22;10059;59.850;10.454;2022-07-29T06:16:08;18.90;99.90
19799;DHT22;10059;59.850;10.454;2022-07-29T06:18:35;19.10;99.90
19799;DHT22;10059;59.850;10.454;2022-07-29T06:21:07;19.30;99.90
19799;DHT22;10059;59.850;10.454;2022-07-29T06:23:35;19.50;99.90
19799;DHT22;10059;59.850;10.454;2022-07-29T06:26:02;19.60;99.90
19799;DHT22;10059;59.850;10.454;2022-07-29T06:28:29;19.70;99.90
19799;DHT22;10059;59.850;10.454;2022-07-29T06:30:57;19.90;99.90
19799;DHT22;10059;59.850;10.454;2022-07-29T06:33:24;19.90;99.90
19799;DHT22;10059;59.850;10.454;2022-07-29T06:35:51;19.50;99.90
19799;DHT22;10059;59.850;10.454;2022-07-29T06:38:18;19.90;99.90
19799;DHT22;10059;59.850;10.454;2022-07-29T06:40:45;20.20;99.90
19799;DHT22;10059;59.850;10.454;2022-07-29T06:43:29;20.70;99.90
19799;DHT22;10059;59.850;10.454;2022-07-29T06:46:00;20.20;99.90
19799;DHT22;10059;59.850;10.454;2022-07-29T06:48:27;20.60;99.90
19799;DHT22;10059;59.850;10.454;2022-07-29T06:50:55;20.80;99.90
19799;DHT22;10059;59.850;10.454;2022-07-29T06:53:21;20.40;99.90
19799;DHT22;10059;59.850;10.454;2022-07-29T06:55:48;20.20;99.90
19799;DHT22;10059;59.850;10.454;2022-07-29T06:58:15;19.90;99.90
19799;DHT22;10059;59.850;10.454;2022-07-29T07:00:43;20.00;99.90
19799;DHT22;10059;59.850;10.454;2022-07-29T07:03:12;20.40;99.90
19799;DHT22;10059;59.850;10.454;2022-07-29T07:05:39;21.00;99.90
19799;DHT22;10059;59.850;10.454;2022-07-29T07:08:06;21.40;99.90
19799;DHT22;10059;59.850;10.454;2022-07-29T07:10:33;21.30;99.90
19799;DHT22;10059;59.850;10.454;2022-07-29T07:13:01;21.20;99.90
19799;DHT22;10059;59.850;10.454;2022-07-29T07:15:28;21.30;99.90
19799;DHT22;10059;59.850;10.454;2022-07-29T07:17:55;21.70;99.90
19799;DHT22;10059;59.850;10.454;2022-07-29T07:20:24;22.00;99.90
19799;DHT22;10059;59.850;10.454;2022-07-29T07:22:51;22.70;99.90
19799;DHT22;10059;59.850;10.454;2022-07-29T07:25:18;22.40;99.90
19799;DHT22;10059;59.850;10.454;2022-07-29T07:27:45;22.50;99.90
19799;DHT22;10059;59.850;10.454;2022-07-29T07:30:13;22.00;99.90
19799;DHT22;10059;59.850;10.454;2022-07-29T07:32:40;22.50;99.90
19799;DHT22;10059;59.850;10.454;2022-07-29T07:35:08;22.60;99.90
19799;DHT22;10059;59.850;10.454;2022-07-29T07:37:37;23.00;99.90
19799;DHT22;10059;59.850;10.454;2022-07-29T07:40:06;23.10;99.90
19799;DHT22;10059;59.850;10.454;2022-07-29T07:42:33;23.40;99.90
19799;DHT22;10059;59.850;10.454;2022-07-29T07:45:00;23.60;99.90
19799;DHT22;10059;59.850;10.454;2022-07-29T07:47:27;23.70;99.90
19799;DHT22;10059;59.850;10.454;2022-07-29T07:49:54;23.90;99.90
19799;DHT22;10059;59.850;10.454;2022-07-29T07:52:22;23.50;99.90
19799;DHT22;10059;59.850;10.454;2022-07-29T07:54:50;23.50;99.90
19799;DHT22;10059;59.850;10.454;2022-07-29T07:57:17;23.20;99.90
19799;DHT22;10059;59.850;10.454;2022-07-29T07:59:44;23.10;99.90
19799;DHT22;10059;59.850;10.454;2022-07-29T08:02:11;23.00;99.90
19799;DHT22;10059;59.850;10.454;2022-07-29T08:04:38;23.10;99.90
19799;DHT22;10059;59.850;10.454;2022-07-29T08:07:06;23.70;99.90
19799;DHT22;10059;59.850;10.454;2022-07-29T08:09:35;23.90;99.90
19799;DHT22;10059;59.850;10.454;2022-07-29T08:12:03;24.20;99.90
19799;DHT22;10059;59.850;10.454;2022-07-29T08:14:31;23.90;99.90
19799;DHT22;10059;59.850;10.454;2022-07-29T08:16:58;23.80;99.90
19799;DHT22;10059;59.850;10.454;2022-07-29T08:19:25;23.70;99.90
19799;DHT22;10059;59.850;10.454;2022-07-29T08:21:52;23.50;99.90
19799;DHT22;10059;59.850;10.454;2022-07-29T08:24:20;24.20;99.90
19799;DHT22;10059;59.850;10.454;2022-07-29T08:27:05;25.00;99.90
19799;DHT22;10059;59.850;10.454;2022-07-29T08:29:32;24.70;99.90
19799;DHT22;10059;59.850;10.454;2022-07-29T08:31:59;24.60;99.90
19799;DHT22;10059;59.850;10.454;2022-07-29T08:34:26;24.70;99.90
19799;DHT22;10059;59.850;10.454;2022-07-29T08:36:54;24.60;99.90
19799;DHT22;10059;59.850;10.454;2022-07-29T08:39:21;25.00;99.90
19799;DHT22;10059;59.850;10.454;2022-07-29T08:41:48;25.00;99.90
19799;DHT22;10059;59.850;10.454;2022-07-29T08:44:17;24.90;99.90
19799;DHT22;10059;59.850;10.454;2022-07-29T08:46:45;25.20;99.90
19799;DHT22;10059;59.850;10.454;2022-07-29T08:49:12;24.90;99.90
19799;DHT22;10059;59.850;10.454;2022-07-29T08:51:40;25.20;99.90
19799;DHT22;10059;59.850;10.454;2022-07-29T08:54:08;24.60;99.90
19799;DHT22;10059;59.850;10.454;2022-07-29T08:56:36;24.80;99.90
19799;DHT22;10059;59.850;10.454;2022-07-29T08:59:05;25.00;99.90
19799;DHT22;10059;59.850;10.454;2022-07-29T09:01:34;25.10;99.90
19799;DHT22;10059;59.850;10.454;2022-07-29T09:04:06;25.20;99.90
19799;DHT22;10059;59.850;10.454;2022-07-29T09:06:39;25.40;99.90
19799;DHT22;10059;59.850;10.454;2022-07-29T09:09:08;25.50;99.90
19799;DHT22;10059;59.850;10.454;2022-07-29T09:11:34;25.70;99.90
19799;DHT22;10059;59.850;10.454;2022-07-29T09:14:02;25.40;99.90
19799;DHT22;10059;59.850;10.454;2022-07-29T09:19:27;25.60;99.90
19799;DHT22;10059;59.850;10.454;2022-07-29T09:21:55;25.40;99.90
19799;DHT22;10059;59.850;10.454;2022-07-29T09:24:26;25.80;99.90
19799;DHT22;10059;59.850;10.454;2022-07-29T09:26:53;25.80;99.90
19799;DHT22;10059;59.850;10.454;2022-07-29T09:29:22;26.00;99.90
19799;DHT22;10059;59.850;10.454;2022-07-29T09:31:51;25.50;99.90
19799;DHT22;10059;59.850;10.454;2022-07-29T09:34:22;25.80;99.90
19799;DHT22;10059;59.850;10.454;2022-07-29T09:36:52;25.90;99.90
19799;DHT22;10059;59.850;10.454;2022-07-29T09:39:29;25.90;99.90
19799;DHT22;10059;59.850;10.454;2022-07-29T09:41:58;25.80;99.90
19799;DHT22;10059;59.850;10.454;2022-07-29T09:44:26;26.00;99.90
19799;DHT22;10059;59.850;10.454;2022-07-29T09:46:57;26.00;99.90
19799;DHT22;10059;59.850;10.454;2022-07-29T09:49:24;25.90;99.90
19799;DHT22;10059;59.850;10.454;2022-07-29T09:52:05;25.60;99.90
19799;DHT22;10059;59.850;10.454;2022-07-29T09:54:33;25.60;99.90
19799;DHT22;10059;59.850;10.454;2022-07-29T09:57:03;25.80;99.90
19799;DHT22;10059;59.850;10.454;2022-07-29T09:59:31;26.20;99.90
19799;DHT22;10059;59.850;10.454;2022-07-29T10:01:58;26.30;99.90
19799;DHT22;10059;59.850;10.454;2022-07-29T10:04:37;26.00;99.90
19799;DHT22;10059;59.850;10.454;2022-07-29T10:07:06;26.20;99.90
19799;DHT22;10059;59.850;10.454;2022-07-29T10:09:33;26.10;99.90
19799;DHT22;10059;59.850;10.454;2022-07-29T10:12:09;26.20;99.90
19799;DHT22;10059;59.850;10.454;2022-07-29T10:14:37;26.10;99.90
19799;DHT22;10059;59.850;10.454;2022-07-29T10:17:05;25.60;99.90
19799;DHT22;10059;59.850;10.454;2022-07-29T10:19:32;26.00;99.90
19799;DHT22;10059;59.850;10.454;2022-07-29T10:22:02;25.80;99.90
19799;DHT22;10059;59.850;10.454;2022-07-29T10:24:31;25.50;99.90
19799;DHT22;10059;59.850;10.454;2022-07-29T10:27:00;25.30;99.90
19799;DHT22;10059;59.850;10.454;2022-07-29T10:29:28;25.10;99.90
19799;DHT22;10059;59.850;10.454;2022-07-29T10:32:11;25.10;99.90
19799;DHT22;10059;59.850;10.454;2022-07-29T10:34:52;25.00;99.90
19799;DHT22;10059;59.850;10.454;2022-07-29T10:37:30;25.30;99.90
19799;DHT22;10059;59.850;10.454;2022-07-29T10:40:08;25.80;99.90
19799;DHT22;10059;59.850;10.454;2022-07-29T10:42:52;25.60;99.90
19799;DHT22;10059;59.850;10.454;2022-07-29T10:45:19;25.90;99.90
19799;DHT22;10059;59.850;10.454;2022-07-29T10:47:46;26.10;99.90
19799;DHT22;10059;59.850;10.454;2022-07-29T10:50:14;26.40;99.90
19799;DHT22;10059;59.850;10.454;2022-07-29T10:52:54;26.30;99.90
19799;DHT22;10059;59.850;10.454;2022-07-29T10:55:36;26.20;99.90
19799;DHT22;10059;59.850;10.454;2022-07-29T10:58:12;26.70;99.90
19799;DHT22;10059;59.850;10.454;2022-07-29T11:00:40;26.30;99.90
19799;DHT22;10059;59.850;10.454;2022-07-29T11:03:07;25.50;99.90
19799;DHT22;10059;59.850;10.454;2022-07-29T11:05:52;25.80;99.90
19799;DHT22;10059;59.850;10.454;2022-07-29T11:08:21;25.90;99.90
19799;DHT22;10059;59.850;10.454;2022-07-29T11:13:51;25.90;99.90
19799;DHT22;10059;59.850;10.454;2022-07-29T11:16:21;25.50;99.90
19799;DHT22;10059;59.850;10.454;2022-07-29T11:19:20;25.70;99.90
19799;DHT22;10059;59.850;10.454;2022-07-29T11:21:47;26.20;99.90
19799;DHT22;10059;59.850;10.454;2022-07-29T11:24:17;26.10;99.90
19799;DHT22;10059;59.850;10.454;2022-07-29T11:26:45;26.00;99.90
19799;DHT22;10059;59.850;10.454;2022-07-29T11:29:32;26.20;99.90
19799;DHT22;10059;59.850;10.454;2022-07-29T11:32:09;26.60;99.90
19799;DHT22;10059;59.850;10.454;2022-07-29T11:34:36;26.50;99.90
19799;DHT22;10059;59.850;10.454;2022-07-29T11:37:22;26.20;99.90
19799;DHT22;10059;59.850;10.454;2022-07-29T11:40:17;26.00;99.90
19799;DHT22;10059;59.850;10.454;2022-07-29T11:42:47;26.00;99.90
19799;DHT22;10059;59.850;10.454;2022-07-29T11:45:20;26.30;99.90
19799;DHT22;10059;59.850;10.454;2022-07-29T11:47:50;26.60;99.90
19799;DHT22;10059;59.850;10.454;2022-07-29T11:50:31;26.60;99.90
19799;DHT22;10059;59.850;10.454;2022-07-29T11:52:59;26.70;99.90
19799;DHT22;10059;59.850;10.454;2022-07-29T11:55:26;27.10;99.90
19799;DHT22;10059;59.850;10.454;2022-07-29T11:57:57;26.80;99.90
19799;DHT22;10059;59.850;10.454;2022-07-29T12:00:30;26.50;99.90
19799;DHT22;10059;59.850;10.454;2022-07-29T12:02:59;26.70;99.90
19799;DHT22;10059;59.850;10.454;2022-07-29T12:05:39;27.10;99.90
19799;DHT22;10059;59.850;10.454;2022-07-29T12:08:14;27.90;99.90
19799;DHT22;10059;59.850;10.454;2022-07-29T12:10:42;27.80;99.90
19799;DHT22;10059;59.850;10.454;2022-07-29T12:13:11;28.60;99.90
19799;DHT22;10059;59.850;10.454;2022-07-29T12:15:38;28.20;99.90
19799;DHT22;10059;59.850;10.454;2022-07-29T12:18:14;28.30;99.90
19799;DHT22;10059;59.850;10.454;2022-07-29T12:20:41;28.20;99.70
19799;DHT22;10059;59.850;10.454;2022-07-29T12:23:09;28.30;99.90
19799;DHT22;10059;59.850;10.454;2022-07-29T12:25:38;28.00;99.10
19799;DHT22;10059;59.850;10.454;2022-07-29T12:28:07;27.90;98.70
19799;DHT22;10059;59.850;10.454;2022-07-29T12:30:41;27.60;98.10
19799;DHT22;10059;59.850;10.454;2022-07-29T12:33:13;27.40;98.60
19799;DHT22;10059;59.850;10.454;2022-07-29T12:35:42;28.20;99.20
19799;DHT22;10059;59.850;10.454;2022-07-29T12:38:10;29.00;98.80
19799;DHT22;10059;59.850;10.454;2022-07-29T12:40:37;29.00;96.70
19799;DHT22;10059;59.850;10.454;2022-07-29T12:43:09;28.40;96.20
19799;DHT22;10059;59.850;10.454;2022-07-29T12:45:36;28.60;93.70
19799;DHT22;10059;59.850;10.454;2022-07-29T12:48:06;28.60;93.00
19799;DHT22;10059;59.850;10.454;2022-07-29T12:50:35;28.80;92.20
19799;DHT22;10059;59.850;10.454;2022-07-29T12:53:10;27.90;91.90
19799;DHT22;10059;59.850;10.454;2022-07-29T12:55:45;27.60;91.80
19799;DHT22;10059;59.850;10.454;2022-07-29T12:58:25;27.30;92.10
19799;DHT22;10059;59.850;10.454;2022-07-29T13:01:03;27.50;92.40
19799;DHT22;10059;59.850;10.454;2022-07-29T13:03:47;27.80;91.70
19799;DHT22;10059;59.850;10.454;2022-07-29T13:06:38;27.40;90.90
19799;DHT22;10059;59.850;10.454;2022-07-29T13:09:10;27.10;91.10
19799;DHT22;10059;59.850;10.454;2022-07-29T13:11:39;27.00;93.30
19799;DHT22;10059;59.850;10.454;2022-07-29T13:14:07;26.90;91.00
19799;DHT22;10059;59.850;10.454;2022-07-29T13:16:35;26.60;92.30
19799;DHT22;10059;59.850;10.454;2022-07-29T13:19:08;27.10;91.60
19799;DHT22;10059;59.850;10.454;2022-07-29T13:21:37;25.90;90.70
19799;DHT22;10059;59.850;10.454;2022-07-29T13:24:05;26.50;91.70
19799;DHT22;10059;59.850;10.454;2022-07-29T13:26:32;26.70;90.80
19799;DHT22;10059;59.850;10.454;2022-07-29T13:28:59;27.20;91.30
19799;DHT22;10059;59.850;10.454;2022-07-29T13:31:26;27.30;91.20
19799;DHT22;10059;59.850;10.454;2022-07-29T13:33:53;27.00;92.20
19799;DHT22;10059;59.850;10.454;2022-07-29T13:36:21;27.20;91.60
19799;DHT22;10059;59.850;10.454;2022-07-29T13:38:48;27.50;92.20
19799;DHT22;10059;59.850;10.454;2022-07-29T13:41:15;27.50;92.30
19799;DHT22;10059;59.850;10.454;2022-07-29T13:43:42;27.40;90.90
19799;DHT22;10059;59.850;10.454;2022-07-29T13:46:09;27.00;91.30
19799;DHT22;10059;59.850;10.454;2022-07-29T13:48:36;27.00;90.70
19799;DHT22;10059;59.850;10.454;2022-07-29T13:51:02;26.80;90.40
19799;DHT22;10059;59.850;10.454;2022-07-29T13:53:31;26.60;90.80
19799;DHT22;10059;59.850;10.454;2022-07-29T13:55:58;26.80;90.40
19799;DHT22;10059;59.850;10.454;2022-07-29T13:58:25;26.70;90.10
19799;DHT22;10059;59.850;10.454;2022-07-29T14:00:52;26.70;91.00
19799;DHT22;10059;59.850;10.454;2022-07-29T14:03:19;26.50;90.80
19799;DHT22;10059;59.850;10.454;2022-07-29T14:05:46;26.20;89.50
19799;DHT22;10059;59.850;10.454;2022-07-29T14:08:13;26.30;91.00
19799;DHT22;10059;59.850;10.454;2022-07-29T14:10:41;26.50;90.90
19799;DHT22;10059;59.850;10.454;2022-07-29T14:13:08;26.00;90.70
19799;DHT22;10059;59.850;10.454;2022-07-29T14:15:35;26.20;90.80
19799;DHT22;10059;59.850;10.454;2022-07-29T14:18:02;26.20;91.10
19799;DHT22;10059;59.850;10.454;2022-07-29T14:20:29;26.30;90.70
19799;DHT22;10059;59.850;10.454;2022-07-29T14:22:56;27.00;91.10
19799;DHT22;10059;59.850;10.454;2022-07-29T14:25:23;27.40;90.10
19799;DHT22;10059;59.850;10.454;2022-07-29T14:27:51;26.80;90.40
19799;DHT22;10059;59.850;10.454;2022-07-29T14:30:19;26.80;90.00
19799;DHT22;10059;59.850;10.454;2022-07-29T14:32:46;26.70;89.40
19799;DHT22;10059;59.850;10.454;2022-07-29T14:35:13;26.50;88.60
19799;DHT22;10059;59.850;10.454;2022-07-29T14:37:41;26.50;90.10
19799;DHT22;10059;59.850;10.454;2022-07-29T14:40:09;27.00;90.10
19799;DHT22;10059;59.850;10.454;2022-07-29T14:42:36;26.70;90.10
19799;DHT22;10059;59.850;10.454;2022-07-29T14:45:05;26.40;89.40
19799;DHT22;10059;59.850;10.454;2022-07-29T14:47:33;26.80;88.20
19799;DHT22;10059;59.850;10.454;2022-07-29T14:50:00;26.80;86.00
19799;DHT22;10059;59.850;10.454;2022-07-29T14:52:26;26.70;87.90
19799;DHT22;10059;59.850;10.454;2022-07-29T14:54:53;26.40;84.90
19799;DHT22;10059;59.850;10.454;2022-07-29T14:57:20;26.30;85.00
19799;DHT22;10059;59.850;10.454;2022-07-29T14:59:47;26.20;86.60
19799;DHT22;10059;59.850;10.454;2022-07-29T15:02:15;26.30;88.40
19799;DHT22;10059;59.850;10.454;2022-07-29T15:04:42;26.60;89.70
19799;DHT22;10059;59.850;10.454;2022-07-29T15:07:10;26.60;89.30
19799;DHT22;10059;59.850;10.454;2022-07-29T15:09:37;26.00;90.10
19799;DHT22;10059;59.850;10.454;2022-07-29T15:12:04;25.70;87.80
19799;DHT22;10059;59.850;10.454;2022-07-29T15:14:31;25.40;89.90
19799;DHT22;10059;59.850;10.454;2022-07-29T15:16:58;25.70;90.90
19799;DHT22;10059;59.850;10.454;2022-07-29T15:19:26;25.60;90.30
19799;DHT22;10059;59.850;10.454;2022-07-29T15:21:53;25.60;89.20
19799;DHT22;10059;59.850;10.454;2022-07-29T15:24:20;25.60;90.10
19799;DHT22;10059;59.850;10.454;2022-07-29T15:26:47;26.10;90.60
19799;DHT22;10059;59.850;10.454;2022-07-29T15:29:14;26.50;91.00
19799;DHT22;10059;59.850;10.454;2022-07-29T15:31:41;26.50;89.00
19799;DHT22;10059;59.850;10.454;2022-07-29T15:34:08;26.20;90.10
19799;DHT22;10059;59.850;10.454;2022-07-29T15:36:36;26.00;90.30